Time;durP1;ratioP1;P1;durP2;ratioP2;P2;SDS_P1;SDS_P2;PMS_P1;PMS_P2;Temp;Humidity;BMP_temperature;BMP_pressure;BME280_temperature;BME280_humidity;BME280_pressure;Samples;Min_cycle;Max_cycle;Signal;HPM_P1;HPM_P2
2022/02/22 00:02:22;;;;;;;;;;;;;;;;;;5090383;28;924;-72
2022/02/22 00:04:48;;;;;;;;;;;;;;;;;;5090333;28;1149;-72
2022/02/22 00:07:15;;;;;;;;;;;;;;;;;;5090413;28;897;-72
2022/02/22 00:09:42;;;;;;;;;;;;;;;;;;5089776;28;1329;-72
2022/02/22 00:12:09;;;;;;;;;;;;;;;;;;5090322;28;1918;-71
2022/02/22 00:14:35;;;;;;;;;;;;;;;;;;5090320;28;769;-72
2022/02/22 00:17:01;;;;;;;;;;;;;;;;;;5090184;28;1130;-72
2022/02/22 00:19:27;;;;;;;;;;;;;;;;;;5071982;28;1410;-72
2022/02/22 00:21:54;;;;;;;;;;;;;;;;;;5089965;28;963;-72
2022/02/22 00:24:22;;;;;;;;;;;;;;;;;;5089900;28;943;-72
2022/02/22 00:26:48;;;;;;;;;;;;;;;;;;5090379;28;682;-72
2022/02/22 00:29:14;;;;;;;;;;;;;;;;;;5072173;28;1378;-72
2022/02/22 00:31:41;;;;;;;;;;;;;;;;;;5092260;28;1918;-71
2022/02/22 00:34:07;;;;;;;;;;;;;;;;;;5093926;28;1141;-72
2022/02/22 00:36:34;;;;;;;;;;;;;;;;;;5093950;28;1082;-72
2022/02/22 00:39:00;;;;;;;;;;;;;;;;;;5093872;28;1351;-72
2022/02/22 00:41:27;;;;;;;;;;;;;;;;;;5093606;28;1015;-72
2022/02/22 00:43:54;;;;;;;;;;;;;;;;;;5093523;28;1082;-72
2022/02/22 00:46:20;;;;;;;;;;;;;;;;;;5093816;28;979;-72
2022/02/22 00:48:46;;;;;;;;;;;;;;;;;;5075594;28;1131;-72
2022/02/22 00:51:12;;;;;;;;;;;;;;;;;;5093215;28;1909;-72
2022/02/22 00:53:38;;;;;;;;;;;;;;;;;;5093625;28;862;-71
2022/02/22 00:56:04;;;;;;;;;;;;;;;;;;5093863;28;1157;-72
2022/02/22 00:58:32;;;;;;;;;;;;;;;;;;5093757;28;908;-72
2022/02/22 01:00:58;;;;;;;;;;;;;;;;;;5093336;28;1319;-72
2022/02/22 01:03:24;;;;;;;;;;;;;;;;;;5093479;28;949;-72
2022/02/22 01:05:51;;;;;;;;;;;;;;;;;;5075172;28;1544;-73
2022/02/22 01:08:17;;;;;;;;;;;;;;;;;;5075298;28;1266;-73
2022/02/22 01:10:43;;;;;;;;;;;;;;;;;;5092859;28;1918;-71
2022/02/22 01:13:10;;;;;;;;;;;;;;;;;;5093175;28;1066;-73
2022/02/22 01:15:37;;;;;;;;;;;;;;;;;;5093275;28;810;-73
2022/02/22 01:18:03;;;;;;;;;;;;;;;;;;5093439;28;1034;-73
2022/02/22 01:20:30;;;;;;;;;;;;;;;;;;5092694;28;1328;-73
2022/02/22 01:22:56;;;;;;;;;;;;;;;;;;5092890;28;979;-73
2022/02/22 01:25:26;;;;;;;;;;;;;;;;;;5093101;28;1087;-72
2022/02/22 01:27:52;;;;;;;;;;;;;;;;;;5093114;28;1000;-73
2022/02/22 01:30:18;;;;;;;;;;;;;;;;;;5092561;28;1377;-73
2022/02/22 01:32:46;;;;;;;;;;;;;;;;;;5092759;28;1913;-73
2022/02/22 01:35:12;;;;;;;;;;;;;;;;;;5092930;28;979;-73
2022/02/22 01:37:38;;;;;;;;;;;;;;;;;;5092646;28;924;-72
2022/02/22 01:40:05;;;;;;;;;;;;;;;;;;5092227;28;1297;-73
2022/02/22 01:42:31;;;;;;;;;;;;;;;;;;5092046;28;735;-73
2022/02/22 01:44:58;;;;;;;;;;;;;;;;;;5092554;28;1474;-73
2022/02/22 01:47:24;;;;;;;;;;;;;;;;;;5092211;28;1558;-73
2022/02/22 01:49:51;;;;;;;;;;;;;;;;;;5092328;28;1320;-73
2022/02/22 01:52:18;;;;;;;;;;;;;;;;;;5092982;28;1910;-73
2022/02/22 01:54:44;;;;;;;;;;;;;;;;;;5074203;28;1238;-73
2022/02/22 01:57:10;;;;;;;;;;;;;;;;;;5092402;28;1137;-72
2022/02/22 01:59:37;;;;;;;;;;;;;;;;;;5091799;28;1393;-73
2022/02/22 02:02:03;;;;;;;;;;;;;;;;;;5092473;28;1111;-73
2022/02/22 02:04:29;;;;;;;;;;;;;;;;;;5092209;28;1078;-72
2022/02/22 02:06:57;;;;;;;;;;;;;;;;;;5092203;28;1022;-72
2022/02/22 02:09:24;;;;;;;;;;;;;;;;;;5092150;28;1325;-72
2022/02/22 02:11:51;;;;;;;;;;;;;;;;;;5092143;28;1910;-73
2022/02/22 02:14:17;;;;;;;;;;;;;;;;;;5092069;28;1003;-73
2022/02/22 02:16:43;;;;;;;;;;;;;;;;;;5091953;28;1066;-72
2022/02/22 02:19:10;;;;;;;;;;;;;;;;;;5091661;28;1388;-72
2022/02/22 02:21:36;;;;;;;;;;;;;;;;;;5091619;28;1133;-72
2022/02/22 02:24:11;;;;;;;;;;;;;;;;;;5091991;28;975;-73
2022/02/22 02:26:37;;;;;;;;;;;;;;;;;;5091791;28;884;-73
2022/02/22 02:29:03;;;;;;;;;;;;;;;;;;5091684;28;1393;-73
2022/02/22 02:31:30;;;;;;;;;;;;;;;;;;5091140;28;1973;-73
2022/02/22 02:33:56;;;;;;;;;;;;;;;;;;5091817;28;960;-72
2022/02/22 02:36:22;;;;;;;;;;;;;;;;;;5091775;28;1094;-73
2022/02/22 02:38:48;;;;;;;;;;;;;;;;;;5091370;28;944;-73
2022/02/22 02:41:16;;;;;;;;;;;;;;;;;;5091459;28;1321;-71
2022/02/22 02:43:42;;;;;;;;;;;;;;;;;;5091419;28;975;-73
2022/02/22 02:46:08;;;;;;;;;;;;;;;;;;5091612;28;975;-72
2022/02/22 02:48:35;;;;;;;;;;;;;;;;;;5091695;28;732;-73
2022/02/22 02:51:01;;;;;;;;;;;;;;;;;;5091093;28;1918;-73
2022/02/22 02:53:27;;;;;;;;;;;;;;;;;;5091960;28;952;-73
2022/02/22 02:55:54;;;;;;;;;;;;;;;;;;5091320;28;1134;-73
2022/02/22 02:58:21;;;;;;;;;;;;;;;;;;5092085;28;896;-73
2022/02/22 03:00:47;;;;;;;;;;;;;;;;;;5090917;28;1288;-73
2022/02/22 03:03:13;;;;;;;;;;;;;;;;;;5091427;28;851;-73
2022/02/22 03:05:40;;;;;;;;;;;;;;;;;;5073100;28;1204;-73
2022/02/22 03:08:06;;;;;;;;;;;;;;;;;;5091270;28;909;-73
2022/02/22 03:10:32;;;;;;;;;;;;;;;;;;5090913;28;1321;-73
2022/02/22 03:12:58;;;;;;;;;;;;;;;;;;5090836;28;1983;-73
2022/02/22 03:15:26;;;;;;;;;;;;;;;;;;5091190;28;1115;-72
2022/02/22 03:17:52;;;;;;;;;;;;;;;;;;5091095;28;1161;-72
2022/02/22 03:20:19;;;;;;;;;;;;;;;;;;5090836;28;1341;-73
2022/02/22 03:22:45;;;;;;;;;;;;;;;;;;5090976;28;1094;-73
2022/02/22 03:25:11;;;;;;;;;;;;;;;;;;5091100;28;1004;-73
2022/02/22 03:27:38;;;;;;;;;;;;;;;;;;5090752;28;842;-73
2022/02/22 03:30:04;;;;;;;;;;;;;;;;;;5090567;28;1374;-73
2022/02/22 03:32:33;;;;;;;;;;;;;;;;;;5090968;28;1909;-73
2022/02/22 03:34:59;;;;;;;;;;;;;;;;;;5091014;28;1082;-72
2022/02/22 03:37:25;;;;;;;;;;;;;;;;;;5091114;28;1041;-73
2022/02/22 03:39:51;;;;;;;;;;;;;;;;;;5090496;28;1404;-73
2022/02/22 03:42:18;;;;;;;;;;;;;;;;;;5090587;28;980;-72
2022/02/22 03:44:44;;;;;;;;;;;;;;;;;;5090684;28;921;-73
2022/02/22 03:47:10;;;;;;;;;;;;;;;;;;5090000;28;1589;-73
2022/02/22 03:49:37;;;;;;;;;;;;;;;;;;5071910;28;1347;-73
2022/02/22 03:52:04;;;;;;;;;;;;;;;;;;5091619;28;1914;-73
2022/02/22 03:54:30;;;;;;;;;;;;;;;;;;5090468;28;1082;-73
2022/02/22 03:56:56;;;;;;;;;;;;;;;;;;5088128;28;1977;-73
2022/02/22 03:59:23;;;;;;;;;;;;;;;;;;5088990;28;1873;-73
2022/02/22 04:01:50;;;;;;;;;;;;;;;;;;5084805;28;1058;-73
2022/02/22 04:04:16;;;;;;;;;;;;;;;;;;5087152;28;1189;-73
2022/02/22 04:06:43;;;;;;;;;;;;;;;;;;5075076;28;1118;-73
2022/02/22 04:09:09;;;;;;;;;;;;;;;;;;5094293;28;1303;-73
2022/02/22 04:11:36;;;;;;;;;;;;;;;;;;5092855;28;1922;-73
2022/02/22 04:14:02;;;;;;;;;;;;;;;;;;5094552;28;1120;-73
2022/02/22 04:16:28;;;;;;;;;;;;;;;;;;5094264;28;959;-73
2022/02/22 04:18:54;;;;;;;;;;;;;;;;;;5094012;28;1102;-73
2022/02/22 04:21:20;;;;;;;;;;;;;;;;;;5094055;28;1333;-73
2022/02/22 04:23:48;;;;;;;;;;;;;;;;;;5094140;28;1074;-73
2022/02/22 04:26:14;;;;;;;;;;;;;;;;;;5094032;28;924;-73
2022/02/22 04:28:40;;;;;;;;;;;;;;;;;;5094279;28;1081;-74
2022/02/22 04:31:06;;;;;;;;;;;;;;;;;;5094093;28;1384;-74
2022/02/22 04:33:32;;;;;;;;;;;;;;;;;;5094687;28;1972;-74
2022/02/22 04:35:59;;;;;;;;;;;;;;;;;;5094116;28;896;-74
2022/02/22 04:38:25;;;;;;;;;;;;;;;;;;5093824;28;682;-73
2022/02/22 04:40:52;;;;;;;;;;;;;;;;;;5093601;28;1278;-74
2022/02/22 04:43:19;;;;;;;;;;;;;;;;;;5092483;28;1518;-74
2022/02/22 04:45:45;;;;;;;;;;;;;;;;;;5093925;28;1121;-74
2022/02/22 04:48:11;;;;;;;;;;;;;;;;;;5091468;28;1461;-74
2022/02/22 04:50:37;;;;;;;;;;;;;;;;;;5084936;28;1371;-73
2022/02/22 04:53:05;;;;;;;;;;;;;;;;;;5093261;28;1917;-74
2022/02/22 04:55:31;;;;;;;;;;;;;;;;;;5093636;28;1500;-73
2022/02/22 04:57:59;;;;;;;;;;;;;;;;;;5093493;28;1085;-74
2022/02/22 05:00:25;;;;;;;;;;;;;;;;;;5092965;28;1520;-73
2022/02/22 05:02:51;;;;;;;;;;;;;;;;;;5090927;28;1571;-73
2022/02/22 05:05:17;;;;;;;;;;;;;;;;;;5097690;28;1385;-74
2022/02/22 05:07:43;;;;;;;;;;;;;;;;;;5093671;28;726;-73
2022/02/22 05:10:10;;;;;;;;;;;;;;;;;;5091370;28;1584;-73
2022/02/22 05:12:36;;;;;;;;;;;;;;;;;;5072965;28;1918;-73
2022/02/22 05:15:04;;;;;;;;;;;;;;;;;;5064095;28;1608;-72
2022/02/22 05:17:30;;;;;;;;;;;;;;;;;;5091611;28;1504;-73
2022/02/22 05:19:56;;;;;;;;;;;;;;;;;;5092870;28;1555;-75
2022/02/22 05:22:22;;;;;;;;;;;;;;;;;;5092812;28;1484;-73
2022/02/22 05:24:48;;;;;;;;;;;;;;;;;;5093023;28;1520;-74
2022/02/22 05:27:14;;;;;;;;;;;;;;;;;;5092234;28;1492;-70
2022/02/22 05:29:41;;;;;;;;;;;;;;;;;;5092619;28;1552;-72
2022/02/22 05:32:09;;;;;;;;;;;;;;;;;;5091449;28;1923;-73
2022/02/22 05:34:35;;;;;;;;;;;;;;;;;;5091848;28;1815;-72
2022/02/22 05:37:01;;;;;;;;;;;;;;;;;;5092806;28;798;-73
2022/02/22 05:39:28;;;;;;;;;;;;;;;;;;5092578;28;1364;-73
2022/02/22 05:41:54;;;;;;;;;;;;;;;;;;5092424;28;1043;-73
2022/02/22 05:44:20;;;;;;;;;;;;;;;;;;5091794;28;1486;-73
2022/02/22 05:46:46;;;;;;;;;;;;;;;;;;5092700;28;973;-73
2022/02/22 05:49:14;;;;;;;;;;;;;;;;;;5075191;28;1335;-72
2022/02/22 05:51:40;;;;;;;;;;;;;;;;;;5075124;28;1300;-72
2022/02/22 05:54:06;;;;;;;;;;;;;;;;;;5092457;28;1977;-72
2022/02/22 05:56:32;;;;;;;;;;;;;;;;;;5092717;28;1125;-72
2022/02/22 05:59:02;;;;;;;;;;;;;;;;;;5092725;28;1390;-71
2022/02/22 06:01:28;;;;;;;;;;;;;;;;;;5073856;28;1190;-72
2022/02/22 06:03:54;;;;;;;;;;;;;;;;;;5074008;28;1138;-73
2022/02/22 06:06:22;;;;;;;;;;;;;;;;;;5092224;28;947;-71
2022/02/22 06:08:48;;;;;;;;;;;;;;;;;;5092322;28;1054;-72
2022/02/22 06:11:14;;;;;;;;;;;;;;;;;;5091783;28;1338;-71
2022/02/22 06:13:40;;;;;;;;;;;;;;;;;;5074153;28;1988;-72
2022/02/22 06:16:06;;;;;;;;;;;;;;;;;;5073979;28;956;-72
2022/02/22 06:18:33;;;;;;;;;;;;;;;;;;5073597;28;1297;-71
2022/02/22 06:20:59;;;;;;;;;;;;;;;;;;5091581;28;1332;-72
2022/02/22 06:23:26;;;;;;;;;;;;;;;;;;5091930;28;1146;-71
2022/02/22 06:25:52;;;;;;;;;;;;;;;;;;5091792;28;813;-72
2022/02/22 06:28:19;;;;;;;;;;;;;;;;;;5091314;28;1283;-72
2022/02/22 06:30:45;;;;;;;;;;;;;;;;;;5073420;28;1407;-71
2022/02/22 06:33:11;;;;;;;;;;;;;;;;;;5091916;28;1975;-71
2022/02/22 06:35:37;;;;;;;;;;;;;;;;;;5091710;28;1083;-70
2022/02/22 06:38:04;;;;;;;;;;;;;;;;;;5091494;28;955;-70
2022/02/22 06:40:31;;;;;;;;;;;;;;;;;;5091373;28;1431;-71
2022/02/22 06:42:58;;;;;;;;;;;;;;;;;;5091592;28;972;-71
2022/02/22 06:45:24;;;;;;;;;;;;;;;;;;5091759;28;1036;-72
2022/02/22 06:47:50;;;;;;;;;;;;;;;;;;5091583;28;949;-71
2022/02/22 06:50:17;;;;;;;;;;;;;;;;;;5090920;28;1328;-72
2022/02/22 06:52:43;;;;;;;;;;;;;;;;;;5091323;28;1914;-71
2022/02/22 06:55:09;;;;;;;;;;;;;;;;;;5091180;28;916;-71
2022/02/22 06:57:37;;;;;;;;;;;;;;;;;;5091419;28;1067;-70
2022/02/22 07:00:06;;;;;;;;;;;;;;;;;;5090979;28;1316;-70
2022/02/22 07:02:32;;;;;;;;;;;;;;;;;;5091424;28;1138;-70
2022/02/22 07:04:58;;;;;;;;;;;;;;;;;;5091301;28;1007;-71
2022/02/22 07:07:25;;;;;;;;;;;;;;;;;;5091027;28;1066;-70
2022/02/22 07:09:51;;;;;;;;;;;;;;;;;;5090827;28;1331;-70
2022/02/22 07:12:17;;;;;;;;;;;;;;;;;;5091289;28;789;-70
2022/02/22 07:14:43;;;;;;;;;;;;;;;;;;5091025;28;1983;-70
2022/02/22 07:17:11;;;;;;;;;;;;;;;;;;5091664;28;1157;-71
2022/02/22 07:19:37;;;;;;;;;;;;;;;;;;5093762;28;1284;-71
2022/02/22 07:22:04;;;;;;;;;;;;;;;;;;5074418;28;1757;-71
2022/02/22 07:24:30;;;;;;;;;;;;;;;;;;5090521;28;2182;-70
2022/02/22 07:26:56;;;;;;;;;;;;;;;;;;5090757;28;1105;-70
2022/02/22 07:29:23;;;;;;;;;;;;;;;;;;5090701;28;1323;-70
2022/02/22 07:31:49;;;;;;;;;;;;;;;;;;5090625;28;925;-70
2022/02/22 07:34:17;;;;;;;;;;;;;;;;;;5090610;28;1914;-71
2022/02/22 07:36:43;;;;;;;;;;;;;;;;;;5090695;28;1270;-69
2022/02/22 07:39:09;;;;;;;;;;;;;;;;;;5090671;28;1420;-71
2022/02/22 07:41:36;;;;;;;;;;;;;;;;;;5089868;28;1118;-69
2022/02/22 07:44:02;;;;;;;;;;;;;;;;;;5090658;28;1135;-72
2022/02/22 07:46:28;;;;;;;;;;;;;;;;;;5090642;28;948;-70
2022/02/22 07:48:54;;;;;;;;;;;;;;;;;;5090393;28;959;-72
2022/02/22 07:51:22;;;;;;;;;;;;;;;;;;5090016;28;1455;-71
2022/02/22 07:53:48;;;;;;;;;;;;;;;;;;5090645;28;1913;-71
2022/02/22 07:56:15;;;;;;;;;;;;;;;;;;5090633;28;778;-71
2022/02/22 07:58:41;;;;;;;;;;;;;;;;;;5090843;28;1018;-71
2022/02/22 08:01:07;;;;;;;;;;;;;;;;;;5090080;28;1410;-71
2022/02/22 08:03:34;;;;;;;;;;;;;;;;;;5090465;28;1019;-71
2022/02/22 08:06:00;;;;;;;;;;;;;;;;;;5090222;28;1154;-70
2022/02/22 08:08:28;;;;;;;;;;;;;;;;;;5090798;28;1134;-71
2022/02/22 08:10:54;;;;;;;;;;;;;;;;;;5090093;28;1367;-71
2022/02/22 08:13:20;;;;;;;;;;;;;;;;;;5090559;28;1973;-71
2022/02/22 08:15:47;;;;;;;;;;;;;;;;;;5090641;28;908;-71
2022/02/22 08:18:13;;;;;;;;;;;;;;;;;;5072106;28;1364;-71
2022/02/22 08:20:40;;;;;;;;;;;;;;;;;;5090266;28;1405;-71
2022/02/22 08:23:06;;;;;;;;;;;;;;;;;;5089947;28;868;-70
2022/02/22 08:25:34;;;;;;;;;;;;;;;;;;5090197;28;1074;-71
2022/02/22 08:28:00;;;;;;;;;;;;;;;;;;5090186;28;1024;-70
2022/02/22 08:30:26;;;;;;;;;;;;;;;;;;5090228;28;1336;-71
2022/02/22 08:32:53;;;;;;;;;;;;;;;;;;5090209;28;1902;-72
2022/02/22 08:35:19;;;;;;;;;;;;;;;;;;5089990;28;1078;-72
2022/02/22 08:37:46;;;;;;;;;;;;;;;;;;5090261;28;817;-70
2022/02/22 08:40:12;;;;;;;;;;;;;;;;;;5089373;28;1380;-72
2022/02/22 08:42:40;;;;;;;;;;;;;;;;;;5089970;28;963;-70
2022/02/22 08:45:06;;;;;;;;;;;;;;;;;;5090039;28;1138;-71
2022/02/22 08:47:32;;;;;;;;;;;;;;;;;;5090077;28;893;-71
2022/02/22 08:49:59;;;;;;;;;;;;;;;;;;5089242;28;1311;-71
2022/02/22 08:52:29;;;;;;;;;;;;;;;;;;5073900;28;1207;-72
2022/02/22 08:54:56;;;;;;;;;;;;;;;;;;5093614;28;1977;-72
2022/02/22 08:57:22;;;;;;;;;;;;;;;;;;5093985;28;901;-72
2022/02/22 08:59:49;;;;;;;;;;;;;;;;;;5093537;28;1351;-72
2022/02/22 09:02:15;;;;;;;;;;;;;;;;;;5093755;28;1118;-70
2022/02/22 09:04:42;;;;;;;;;;;;;;;;;;5093444;28;967;-72
2022/02/22 09:07:08;;;;;;;;;;;;;;;;;;5093834;28;979;-71
2022/02/22 09:09:34;;;;;;;;;;;;;;;;;;5093327;28;1320;-70
2022/02/22 09:12:01;;;;;;;;;;;;;;;;;;5093433;28;1086;-71
2022/02/22 09:14:27;;;;;;;;;;;;;;;;;;5093241;28;1918;-71
2022/02/22 09:16:55;;;;;;;;;;;;;;;;;;5075261;28;842;-71
2022/02/22 09:19:21;;;;;;;;;;;;;;;;;;5092817;28;1384;-71
2022/02/22 09:21:47;;;;;;;;;;;;;;;;;;5092927;28;1125;-70
2022/02/22 09:24:13;;;;;;;;;;;;;;;;;;5093286;28;1023;-70
2022/02/22 09:26:40;;;;;;;;;;;;;;;;;;5093297;28;889;-70
2022/02/22 09:29:06;;;;;;;;;;;;;;;;;;5093231;28;1374;-71
2022/02/22 09:31:32;;;;;;;;;;;;;;;;;;5074680;28;1675;-71
2022/02/22 09:34:00;;;;;;;;;;;;;;;;;;5092860;28;1979;-71
2022/02/22 09:36:26;;;;;;;;;;;;;;;;;;5093020;28;1212;-71
2022/02/22 09:38:52;;;;;;;;;;;;;;;;;;5092480;28;976;-71
2022/02/22 09:41:18;;;;;;;;;;;;;;;;;;5074387;28;1371;-71
2022/02/22 09:43:44;;;;;;;;;;;;;;;;;;5092825;28;1281;-71
2022/02/22 09:46:10;;;;;;;;;;;;;;;;;;5092610;28;943;-71
2022/02/22 09:48:37;;;;;;;;;;;;;;;;;;5092699;28;1059;-71
2022/02/22 09:51:04;;;;;;;;;;;;;;;;;;5106287;22;3706;-70
2022/02/22 09:53:30;;;;;;;;;;;;;;;;;;5072397;28;1921;-73
2022/02/22 09:55:57;;;;;;;;;;;;;;;;;;5074903;28;1397;-72
2022/02/22 09:58:23;;;;;;;;;;;;;;;;;;5069428;28;1981;-71
2022/02/22 10:00:57;;;;;;;;;;;;;;;;;;5071857;28;2069;-72
2022/02/22 10:03:23;;;;;;;;;;;;;;;;;;5089894;28;1256;-72
2022/02/22 10:05:53;;;;;;;;;;;;;;;;;;5092845;28;1070;-72
2022/02/22 10:08:25;;;;;;;;;;;;;;;;;;5074482;28;1063;-72
2022/02/22 10:10:59;;;;;;;;;;;;;;;;;;5092365;28;1392;-72
2022/02/22 10:13:25;;;;;;;;;;;;;;;;;;5092524;28;1910;-72
2022/02/22 10:15:51;;;;;;;;;;;;;;;;;;5092492;28;1086;-72
2022/02/22 10:18:18;;;;;;;;;;;;;;;;;;5092416;28;802;-73
2022/02/22 10:20:47;;;;;;;;;;;;;;;;;;5091817;28;1391;-72
2022/02/22 10:23:13;;;;;;;;;;;;;;;;;;5092305;28;860;-72
2022/02/22 10:25:41;;;;;;;;;;;;;;;;;;5092433;28;1138;-72
2022/02/22 10:28:07;;;;;;;;;;;;;;;;;;5091994;28;1015;-72
2022/02/22 10:30:39;;;;;;;;;;;;;;;;;;5092038;28;1075;-72
2022/02/22 10:33:13;;;;;;;;;;;;;;;;;;5092276;28;908;-73
2022/02/22 10:35:39;;;;;;;;;;;;;;;;;;5093834;28;1918;-73
2022/02/22 10:38:12;;;;;;;;;;;;;;;;;;5092506;28;1087;-72
2022/02/22 10:40:41;;;;;;;;;;;;;;;;;;5091625;28;1272;-72
2022/02/22 10:43:07;;;;;;;;;;;;;;;;;;5091862;28;976;-72
2022/02/22 10:45:34;;;;;;;;;;;;;;;;;;5091885;28;956;-73
2022/02/22 10:48:00;;;;;;;;;;;;;;;;;;5092151;28;1055;-71
2022/02/22 10:50:28;;;;;;;;;;;;;;;;;;5091814;28;892;-73
2022/02/22 10:52:55;;;;;;;;;;;;;;;;;;5091650;28;1295;-72
2022/02/22 10:55:21;;;;;;;;;;;;;;;;;;5091832;28;1922;-73
2022/02/22 10:57:49;;;;;;;;;;;;;;;;;;5073457;28;1387;-72
2022/02/22 11:00:16;;;;;;;;;;;;;;;;;;5073223;28;1167;-72
2022/02/22 11:02:44;;;;;;;;;;;;;;;;;;5091526;28;1320;-72
2022/02/22 11:05:10;;;;;;;;;;;;;;;;;;5091458;28;1082;-72
2022/02/22 11:07:36;;;;;;;;;;;;;;;;;;5091497;28;849;-72
2022/02/22 11:10:03;;;;;;;;;;;;;;;;;;5091264;28;1166;-72
2022/02/22 11:12:33;;;;;;;;;;;;;;;;;;5091489;28;1396;-72
2022/02/22 11:15:08;;;;;;;;;;;;;;;;;;5090176;28;1929;-72
2022/02/22 11:17:34;;;;;;;;;;;;;;;;;;5073234;28;1071;-72
2022/02/22 11:20:00;;;;;;;;;;;;;;;;;;5089419;28;1352;-72
2022/02/22 11:22:27;;;;;;;;;;;;;;;;;;5091163;28;1294;-72
2022/02/22 11:24:54;;;;;;;;;;;;;;;;;;5091189;28;929;-72
2022/02/22 11:27:24;;;;;;;;;;;;;;;;;;5091289;28;928;-72
2022/02/22 11:29:55;;;;;;;;;;;;;;;;;;5090785;28;1078;-72
2022/02/22 11:32:23;;;;;;;;;;;;;;;;;;5090816;28;1333;-72
2022/02/22 11:34:49;;;;;;;;;;;;;;;;;;5090847;28;1981;-72
2022/02/22 11:37:17;;;;;;;;;;;;;;;;;;5090858;28;815;-72
2022/02/22 11:39:44;;;;;;;;;;;;;;;;;;5090491;28;1062;-72
2022/02/22 11:42:20;;;;;;;;;;;;;;;;;;5090644;28;1383;-72
2022/02/22 11:44:57;;;;;;;;;;;;;;;;;;5091284;28;1090;-72
2022/02/22 11:47:24;;;;;;;;;;;;;;;;;;5090845;28;1122;-72
2022/02/22 11:49:53;;;;;;;;;;;;;;;;;;5090100;28;1024;-72
2022/02/22 11:52:19;;;;;;;;;;;;;;;;;;5090468;28;1320;-72
2022/02/22 11:54:46;;;;;;;;;;;;;;;;;;5090533;28;1910;-72
2022/02/22 11:57:15;;;;;;;;;;;;;;;;;;5090391;28;1545;-72
2022/02/22 11:59:45;;;;;;;;;;;;;;;;;;5072361;28;857;-72
2022/02/22 12:02:11;;;;;;;;;;;;;;;;;;5090449;28;1302;-72
2022/02/22 12:04:43;;;;;;;;;;;;;;;;;;5090675;28;1113;-72
2022/02/22 12:07:09;;;;;;;;;;;;;;;;;;5090439;28;864;-72
2022/02/22 12:09:37;;;;;;;;;;;;;;;;;;5090295;28;794;-72
2022/02/22 12:12:04;;;;;;;;;;;;;;;;;;5090462;28;1308;-72
2022/02/22 12:14:30;;;;;;;;;;;;;;;;;;5090427;28;1967;-72
2022/02/22 12:16:56;;;;;;;;;;;;;;;;;;5090470;28;904;-72
2022/02/22 12:19:22;;;;;;;;;;;;;;;;;;5090481;28;952;-72
2022/02/22 12:21:51;;;;;;;;;;;;;;;;;;5090088;28;1294;-72
2022/02/22 12:24:20;;;;;;;;;;;;;;;;;;5090356;28;1082;-72
2022/02/22 12:26:46;;;;;;;;;;;;;;;;;;5091471;28;881;-72
2022/02/22 12:29:13;;;;;;;;;;;;;;;;;;5094540;28;1070;-72
2022/02/22 12:31:42;;;;;;;;;;;;;;;;;;5094406;28;1317;-72
2022/02/22 12:34:09;;;;;;;;;;;;;;;;;;5094195;28;1910;-72
2022/02/22 12:36:35;;;;;;;;;;;;;;;;;;5094333;28;848;-72
2022/02/22 12:39:04;;;;;;;;;;;;;;;;;;5094395;28;805;-72
2022/02/22 12:41:31;;;;;;;;;;;;;;;;;;5093949;28;1410;-72
2022/02/22 12:43:58;;;;;;;;;;;;;;;;;;5093952;28;1083;-72
2022/02/22 12:46:24;;;;;;;;;;;;;;;;;;5093957;28;869;-72
2022/02/22 12:48:51;;;;;;;;;;;;;;;;;;5094103;28;1102;-72
2022/02/22 12:51:23;;;;;;;;;;;;;;;;;;5093882;28;1377;-72
2022/02/22 12:53:56;;;;;;;;;;;;;;;;;;5094588;28;1145;-72
2022/02/22 12:56:28;;;;;;;;;;;;;;;;;;5091967;28;2431;-72
2022/02/22 12:58:54;;;;;;;;;;;;;;;;;;5093820;28;1161;-72
2022/02/22 13:01:20;;;;;;;;;;;;;;;;;;5093467;28;1321;-72
2022/02/22 13:03:48;;;;;;;;;;;;;;;;;;5093838;28;826;-72
2022/02/22 13:06:14;;;;;;;;;;;;;;;;;;5093772;28;963;-72
2022/02/22 13:08:41;;;;;;;;;;;;;;;;;;5093783;28;1082;-72
2022/02/22 13:11:07;;;;;;;;;;;;;;;;;;5075077;28;1639;-72
2022/02/22 13:13:35;;;;;;;;;;;;;;;;;;5093841;28;1149;-72
2022/02/22 13:16:07;;;;;;;;;;;;;;;;;;5093719;28;1914;-72
2022/02/22 13:18:34;;;;;;;;;;;;;;;;;;5093805;28;1074;-72
2022/02/22 13:21:10;;;;;;;;;;;;;;;;;;5092796;28;1401;-73
2022/02/22 13:23:37;;;;;;;;;;;;;;;;;;5075881;28;908;-72
2022/02/22 13:26:04;;;;;;;;;;;;;;;;;;5093284;28;951;-72
2022/02/22 13:28:30;;;;;;;;;;;;;;;;;;5093811;28;789;-73
2022/02/22 13:30:58;;;;;;;;;;;;;;;;;;5092893;28;1324;-72
2022/02/22 13:33:24;;;;;;;;;;;;;;;;;;5093200;28;1062;-72
2022/02/22 13:35:54;;;;;;;;;;;;;;;;;;5074916;28;1926;-72
2022/02/22 13:38:20;;;;;;;;;;;;;;;;;;5074164;28;1138;-72
2022/02/22 13:40:47;;;;;;;;;;;;;;;;;;5092377;28;1325;-72
2022/02/22 13:43:14;;;;;;;;;;;;;;;;;;5093263;28;967;-72
2022/02/22 13:45:41;;;;;;;;;;;;;;;;;;5075035;28;1170;-72
2022/02/22 13:48:10;;;;;;;;;;;;;;;;;;5093149;28;797;-72
2022/02/22 13:50:36;;;;;;;;;;;;;;;;;;5092590;28;1312;-71
2022/02/22 13:53:03;;;;;;;;;;;;;;;;;;5092741;28;950;-72
2022/02/22 13:55:32;;;;;;;;;;;;;;;;;;5092763;28;1965;-72
2022/02/22 13:57:59;;;;;;;;;;;;;;;;;;5092292;28;1129;-72
2022/02/22 14:00:26;;;;;;;;;;;;;;;;;;5092348;28;1086;-71
2022/02/22 14:02:58;;;;;;;;;;;;;;;;;;5092011;28;1541;-72
2022/02/22 14:05:26;;;;;;;;;;;;;;;;;;5072687;28;1035;-72
2022/02/22 14:07:52;;;;;;;;;;;;;;;;;;5072368;28;908;-72
2022/02/22 14:10:19;;;;;;;;;;;;;;;;;;5072064;28;861;-73
2022/02/22 14:12:45;;;;;;;;;;;;;;;;;;5072025;28;1382;-72
2022/02/22 14:15:11;;;;;;;;;;;;;;;;;;5071675;28;1981;-72
2022/02/22 14:17:37;;;;;;;;;;;;;;;;;;5072148;28;968;-72
2022/02/22 14:20:06;;;;;;;;;;;;;;;;;;5071948;28;892;-73
2022/02/22 14:22:33;;;;;;;;;;;;;;;;;;5071947;28;1292;-72
2022/02/22 14:24:59;;;;;;;;;;;;;;;;;;5054077;28;1366;-72
2022/02/22 14:27:26;;;;;;;;;;;;;;;;;;5072197;28;936;-72
2022/02/22 14:29:52;;;;;;;;;;;;;;;;;;5071536;28;1079;-72
2022/02/22 14:32:18;;;;;;;;;;;;;;;;;;5053914;28;1348;-72
2022/02/22 14:34:45;;;;;;;;;;;;;;;;;;5071617;28;1914;-72
2022/02/22 14:37:11;;;;;;;;;;;;;;;;;;5071751;28;1118;-72
2022/02/22 14:39:39;;;;;;;;;;;;;;;;;;5053800;28;964;-72
2022/02/22 14:42:05;;;;;;;;;;;;;;;;;;5071505;28;1298;-72
2022/02/22 14:44:31;;;;;;;;;;;;;;;;;;5053834;28;1183;-72
2022/02/22 14:46:57;;;;;;;;;;;;;;;;;;5071586;28;1134;-72
2022/02/22 14:49:24;;;;;;;;;;;;;;;;;;5071349;28;917;-72
2022/02/22 14:51:51;;;;;;;;;;;;;;;;;;5070949;28;1303;-71
2022/02/22 14:54:17;;;;;;;;;;;;;;;;;;5071155;28;1067;-72
2022/02/22 14:56:45;;;;;;;;;;;;;;;;;;5071415;28;2031;-72
2022/02/22 14:59:11;;;;;;;;;;;;;;;;;;5071229;28;1090;-72
2022/02/22 15:01:38;;;;;;;;;;;;;;;;;;5070863;28;1290;-71
2022/02/22 15:04:04;;;;;;;;;;;;;;;;;;5071980;28;1066;-72
2022/02/22 15:06:30;;;;;;;;;;;;;;;;;;5053627;28;1104;-72
2022/02/22 15:08:57;;;;;;;;;;;;;;;;;;5070949;28;1122;-72
2022/02/22 15:11:23;;;;;;;;;;;;;;;;;;5071069;28;1379;-72
2022/02/22 15:13:51;;;;;;;;;;;;;;;;;;5070866;28;793;-72
2022/02/22 15:16:17;;;;;;;;;;;;;;;;;;5071006;28;1977;-71
2022/02/22 15:18:43;;;;;;;;;;;;;;;;;;5053099;28;1128;-72
2022/02/22 15:21:10;;;;;;;;;;;;;;;;;;5070612;28;1322;-72
2022/02/22 15:23:36;;;;;;;;;;;;;;;;;;5053069;28;1269;-71
2022/02/22 15:26:03;;;;;;;;;;;;;;;;;;5071004;28;1087;-72
2022/02/22 15:28:29;;;;;;;;;;;;;;;;;;5052617;28;1144;-72
2022/02/22 15:30:57;;;;;;;;;;;;;;;;;;5052605;28;1319;-72
2022/02/22 15:33:24;;;;;;;;;;;;;;;;;;5070985;28;1071;-72
2022/02/22 15:35:52;;;;;;;;;;;;;;;;;;5070859;28;1913;-72
2022/02/22 15:38:18;;;;;;;;;;;;;;;;;;5070916;28;1111;-72
2022/02/22 15:40:46;;;;;;;;;;;;;;;;;;5070296;28;1329;-72
2022/02/22 15:43:12;;;;;;;;;;;;;;;;;;5070894;28;1102;-72
2022/02/22 15:45:39;;;;;;;;;;;;;;;;;;5070653;28;1023;-71
2022/02/22 15:48:06;;;;;;;;;;;;;;;;;;5070345;28;1027;-72
2022/02/22 15:50:32;;;;;;;;;;;;;;;;;;5070432;28;1041;-72
2022/02/22 15:53:00;;;;;;;;;;;;;;;;;;5070371;28;1381;-72
2022/02/22 15:55:26;;;;;;;;;;;;;;;;;;5087153;22;2166;-71
2022/02/22 15:57:52;;;;;;;;;;;;;;;;;;5054258;28;1440;-69
2022/02/22 16:00:18;;;;;;;;;;;;;;;;;;5068418;28;1850;-71
2022/02/22 16:02:45;;;;;;;;;;;;;;;;;;5073922;28;1514;-72
2022/02/22 16:05:12;;;;;;;;;;;;;;;;;;5074579;28;1417;-71
2022/02/22 16:07:39;;;;;;;;;;;;;;;;;;5074860;28;679;-72
2022/02/22 16:10:05;;;;;;;;;;;;;;;;;;5074294;28;1062;-71
2022/02/22 16:12:31;;;;;;;;;;;;;;;;;;5074429;28;908;-71
2022/02/22 16:14:58;;;;;;;;;;;;;;;;;;5074408;28;1332;-70
2022/02/22 16:17:24;;;;;;;;;;;;;;;;;;5074018;28;1979;-69
2022/02/22 16:19:50;;;;;;;;;;;;;;;;;;5073961;28;866;-70
2022/02/22 16:22:18;;;;;;;;;;;;;;;;;;5074168;28;1090;-71
2022/02/22 16:24:44;;;;;;;;;;;;;;;;;;5073514;28;1336;-70
2022/02/22 16:27:10;;;;;;;;;;;;;;;;;;5073932;28;1150;-71
2022/02/22 16:29:36;;;;;;;;;;;;;;;;;;5073713;28;889;-69
2022/02/22 16:32:04;;;;;;;;;;;;;;;;;;5074148;28;1134;-71
2022/02/22 16:34:30;;;;;;;;;;;;;;;;;;5055752;28;1338;-71
2022/02/22 16:36:56;;;;;;;;;;;;;;;;;;5073700;28;1918;-71
2022/02/22 16:39:25;;;;;;;;;;;;;;;;;;5073573;28;1137;-71
2022/02/22 16:41:51;;;;;;;;;;;;;;;;;;5055930;28;1192;-70
2022/02/22 16:44:17;;;;;;;;;;;;;;;;;;5073466;28;1407;-71
2022/02/22 16:46:43;;;;;;;;;;;;;;;;;;5073793;28;1075;-71
2022/02/22 16:49:10;;;;;;;;;;;;;;;;;;5073946;28;945;-71
2022/02/22 16:51:36;;;;;;;;;;;;;;;;;;5054946;28;1108;-71
2022/02/22 16:54:02;;;;;;;;;;;;;;;;;;5073351;28;1291;-71
2022/02/22 16:56:30;;;;;;;;;;;;;;;;;;5073159;28;1914;-71
2022/02/22 16:58:56;;;;;;;;;;;;;;;;;;5073341;28;826;-72
2022/02/22 17:01:22;;;;;;;;;;;;;;;;;;5073006;28;1118;-71
2022/02/22 17:03:48;;;;;;;;;;;;;;;;;;5073239;28;1393;-71
2022/02/22 17:06:14;;;;;;;;;;;;;;;;;;5073409;28;960;-72